Terminal Aerodrome Forecast
Issued by NWS

Home | Current Version | Previous Version | Text Only | Print | Product List | Glossary On
Versions: 1 2 3 4 5 6 7 8 9 10 11 12 13 14 15 16 17 18 19
000
FTUS42 KJAX 270117 AAA
TAFVQQ
TAF AMD
KVQQ 270117Z 2701/2724 08006KT P6SM SCT025 SCT250
      TEMPO 2701/2703 BKN025
     FM270400 VRB02KT P6SM FEW250
     FM271400 08008KT P6SM VCSH BKN035
     FM271800 09011G18KT P6SM VCSH BKN040 BKN250=

USA.gov is the U.S. government's official web portal to all federal, state and local government web resources and services.